UKKK/IEV METAR and TAF weather

Enter ICAO airport designator
Station Type Date Time Source
UKKK METAR 2020/04/04 21:00 UTC NOAA

UKKK 042100Z 28002MPS 6000 NSC 02/M09 Q1027 R26/CLRD70 NOSIG


Station Type Date Time Source
UKKK Decoded METAR 2020/04/04 21:00 UTC NOAA

Kyiv, Ukraine (UKKK) 50-24N 030-34E 167M
Apr 04, 2020 - 05:00 PM EDT / 2020.04.04 2100 UTC
Wind: from the W (280 degrees) at 4 MPH (4 KT):0
Visibility: 3 mile(s):0
Temperature: 35 F (2 C)
Dew Point: 15 F (-9 C)
Relative Humidity: 43%
Pressure (altimeter): 30.33 in. Hg (1027 hPa)
ob: UKKK 042100Z 28002MPS 6000 NSC 02/M09 Q1027 R26/CLRD70 NOSIG
cycle: 21

Station Type Date Time Source
UKKK TAF 2020/04/04 18:18 UTC NOAA

TAF TAF UKKK 041703Z 0418/0518 31004G09MPS 9999 SCT020 TX12/0512Z TNM03/0503Z
TEMPO 0418/0424 2000 FU SCT007
BECMG 0506/0508 35005G11MPS
TEMPO 0508/0515 32008G13MPS

Example: see airport list